Time;durP1;ratioP1;P1;durP2;ratioP2;P2;SDS_P1;SDS_P2;PMS_P1;PMS_P2;Temp;Humidity;BMP_temperature;BMP_pressure;BME280_temperature;BME280_humidity;BME280_pressure;Samples;Min_cycle;Max_cycle;Signal;HPM_P1;HPM_P2
2021/12/28 00:02:13;;;;;;;;;;;13.20;99.90;;;;;;6239305;23;19892;-91
2021/12/28 00:07:49;;;;;;;;;;;13.10;99.90;;;;;;6211128;23;19961;-91
2021/12/28 00:10:32;;;;;;;;;;;13.00;99.90;;;;;;6201149;23;19911;-92
2021/12/28 00:13:45;;;;;;;;;;;;;;;;;;;;;
2021/12/28 00:19:12;;;;;;;;;;;13.10;99.90;;;;;;6202722;23;19908;-91
2021/12/28 00:24:40;;;;;;;;;;;13.10;99.90;;;;;;6143321;23;19952;-92
2021/12/28 00:29:56;;;;;;;;;;;13.00;99.90;;;;;;6199931;23;19928;-91
2021/12/28 00:33:02;;;;;;;;;;;;;;;;;;;;;
2021/12/28 00:35:48;;;;;;;;;;;12.90;99.90;;;;;;6170250;23;19905;-92
2021/12/28 00:38:28;;;;;;;;;;;12.80;99.90;;;;;;6296640;22;19926;-93
2021/12/28 00:40:56;;;;;;;;;;;12.70;99.90;;;;;;6310272;22;19903;-91
2021/12/28 00:46:09;;;;;;;;;;;12.60;99.90;;;;;;6340507;22;19922;-92
2021/12/28 00:48:55;;;;;;;;;;;12.50;99.90;;;;;;6361243;22;19912;-91
2021/12/28 00:51:41;;;;;;;;;;;12.50;99.90;;;;;;6358163;22;19910;-92
2021/12/28 01:04:15;;;;;;;;;;;;;;;;;;;;;
2021/12/28 01:06:31;;;;;;;;;;;12.50;99.90;;;;;;6195721;23;19928;-92
2021/12/28 01:09:43;;;;;;;;;;;12.50;99.90;;;;;;6199846;23;19928;-93
2021/12/28 01:12:59;;;;;;;;;;;;;;;;;;;;;
2021/12/28 01:21:38;;;;;;;;;;;12.40;99.90;;;;;;5911517;24;19908;-91
2021/12/28 01:27:48;;;;;;;;;;;12.50;99.90;;;;;;5946109;24;19907;-94
2021/12/28 01:30:17;;;;;;;;;;;12.50;99.90;;;;;;5967698;23;19905;-92
2021/12/28 01:39:11;;;;;;;;;;;12.50;99.90;;;;;;5990554;23;19907;-91
2021/12/28 01:50:58;;;;;;;;;;;12.50;99.90;;;;;;6008894;23;19907;-92
2021/12/28 01:53:52;;;;;;;;;;;12.50;99.90;;;;;;6114168;23;19917;-94
2021/12/28 01:56:36;;;;;;;;;;;;;;;;;;;;;
2021/12/28 01:59:17;;;;;;;;;;;12.50;99.90;;;;;;6138871;23;19940;-91
2021/12/28 02:01:42;;;;;;;;;;;12.50;99.90;;;;;;6135000;23;19905;-90
2021/12/28 02:08:18;;;;;;;;;;;;;;;;;;;;;
2021/12/28 02:11:12;;;;;;;;;;;;;;;;;;;;;
2021/12/28 02:13:47;;;;;;;;;;;12.30;99.90;;;;;;6348794;22;19945;-92
2021/12/28 02:16:35;;;;;;;;;;;12.30;99.90;;;;;;6353681;22;19902;-94
2021/12/28 02:19:30;;;;;;;;;;;12.30;99.90;;;;;;6347625;22;19942;-94
2021/12/28 02:22:06;;;;;;;;;;;12.30;99.90;;;;;;6349790;22;19910;-93
2021/12/28 02:27:43;;;;;;;;;;;;;;;;;;;;;
2021/12/28 02:30:19;;;;;;;;;;;12.20;99.90;;;;;;6380355;22;19918;-93
2021/12/28 02:33:10;;;;;;;;;;;12.20;99.90;;;;;;6350786;22;19914;-92
2021/12/28 02:36:06;;;;;;;;;;;12.20;99.90;;;;;;6352343;22;19909;-92
2021/12/28 02:39:13;;;;;;;;;;;12.20;99.90;;;;;;6354106;22;19902;-93
2021/12/28 02:45:17;;;;;;;;;;;;;;;;;;;;;
2021/12/28 02:48:03;;;;;;;;;;;12.20;99.90;;;;;;6194115;23;19935;-93
2021/12/28 02:50:58;;;;;;;;;;;;;;;;;;;;;
2021/12/28 02:53:44;;;;;;;;;;;12.20;99.90;;;;;;6282467;22;19957;-93
2021/12/28 02:56:51;;;;;;;;;;;12.20;99.90;;;;;;6257655;22;20353;-93
2021/12/28 02:59:13;;;;;;;;;;;12.30;99.90;;;;;;6281291;22;19910;-92
2021/12/28 03:01:48;;;;;;;;;;;12.30;99.90;;;;;;6255744;22;20251;-92
2021/12/28 03:04:39;;;;;;;;;;;12.30;99.90;;;;;;6285673;22;19887;-94
2021/12/28 03:07:27;;;;;;;;;;;12.40;99.90;;;;;;6262340;22;19907;-92
2021/12/28 03:10:10;;;;;;;;;;;12.40;99.90;;;;;;6185727;22;19915;-93
2021/12/28 03:12:57;;;;;;;;;;;12.50;99.90;;;;;;6253264;22;19911;-92
2021/12/28 03:16:03;;;;;;;;;;;12.50;99.90;;;;;;6325823;22;20250;-94
2021/12/28 03:18:30;;;;;;;;;;;12.50;99.90;;;;;;6367090;22;19927;-92
2021/12/28 03:21:05;;;;;;;;;;;12.60;99.90;;;;;;6346975;22;19902;-91
2021/12/28 03:24:05;;;;;;;;;;;12.60;99.90;;;;;;6351117;22;19981;-91
2021/12/28 03:26:36;;;;;;;;;;;12.60;99.90;;;;;;6353060;22;19902;-92
2021/12/28 03:29:07;;;;;;;;;;;12.60;99.90;;;;;;6326108;22;19907;-94
2021/12/28 03:31:34;;;;;;;;;;;12.60;99.90;;;;;;6351830;22;20024;-92
2021/12/28 03:34:04;;;;;;;;;;;12.60;99.90;;;;;;6331290;22;19906;-92
2021/12/28 03:36:33;;;;;;;;;;;12.70;99.90;;;;;;6350843;22;19906;-92
2021/12/28 03:39:19;;;;;;;;;;;12.70;99.90;;;;;;6352359;22;19902;-93
2021/12/28 03:41:52;;;;;;;;;;;12.70;99.90;;;;;;6346779;22;19938;-92
2021/12/28 03:44:45;;;;;;;;;;;12.80;99.90;;;;;;6348307;22;19906;-93
2021/12/28 03:47:11;;;;;;;;;;;12.80;99.90;;;;;;6349197;22;19947;-93
2021/12/28 03:50:25;;;;;;;;;;;12.80;99.90;;;;;;6314575;22;19914;-93
2021/12/28 03:56:22;;;;;;;;;;;12.80;99.90;;;;;;6293357;22;19911;-94
2021/12/28 03:59:05;;;;;;;;;;;12.80;99.90;;;;;;6281589;22;19986;-94
2021/12/28 04:01:39;;;;;;;;;;;12.80;99.90;;;;;;6282306;22;19909;-91
2021/12/28 04:04:05;;;;;;;;;;;12.90;99.90;;;;;;6306955;22;19902;-91
2021/12/28 04:06:48;;;;;;;;;;;12.90;99.90;;;;;;6286354;22;19922;-93
2021/12/28 04:09:20;;;;;;;;;;;12.90;99.90;;;;;;6285679;22;19903;-93
2021/12/28 04:11:59;;;;;;;;;;;;;;;;;;;;;
2021/12/28 04:14:24;;;;;;;;;;;12.90;99.90;;;;;;6306477;22;20513;-92
2021/12/28 04:16:50;;;;;;;;;;;12.90;99.90;;;;;;6279673;22;19918;-95
2021/12/28 04:19:16;;;;;;;;;;;12.90;99.90;;;;;;6278741;22;19986;-92
2021/12/28 04:21:51;;;;;;;;;;;13.00;99.90;;;;;;6332650;22;19923;-93
2021/12/28 04:24:17;;;;;;;;;;;12.90;99.90;;;;;;6342243;22;19902;-92
2021/12/28 04:26:43;;;;;;;;;;;12.90;99.90;;;;;;6344206;22;19909;-93
2021/12/28 04:29:08;;;;;;;;;;;12.90;99.90;;;;;;6342813;22;19902;-91
2021/12/28 04:31:34;;;;;;;;;;;12.90;99.90;;;;;;6344761;22;19948;-92
2021/12/28 04:33:59;;;;;;;;;;;13.00;99.90;;;;;;6342296;22;19902;-93
2021/12/28 04:36:25;;;;;;;;;;;13.00;99.90;;;;;;6342075;22;19910;-93
2021/12/28 04:38:52;;;;;;;;;;;13.00;99.90;;;;;;6368932;22;19902;-92
2021/12/28 04:41:17;;;;;;;;;;;13.10;99.90;;;;;;6372518;22;19902;-92
2021/12/28 04:43:46;;;;;;;;;;;13.20;99.90;;;;;;6343085;22;19902;-91
2021/12/28 04:46:11;;;;;;;;;;;13.10;99.90;;;;;;6340291;22;19902;-93
2021/12/28 04:48:37;;;;;;;;;;;13.20;99.90;;;;;;6342633;22;19963;-93
2021/12/28 04:51:03;;;;;;;;;;;13.30;99.90;;;;;;6341053;22;19902;-96
2021/12/28 04:53:31;;;;;;;;;;;13.30;99.90;;;;;;6340395;22;19917;-93
2021/12/28 04:55:56;;;;;;;;;;;13.20;99.90;;;;;;6340458;22;20227;-91
2021/12/28 04:58:22;;;;;;;;;;;13.20;99.90;;;;;;6341452;22;20380;-92
2021/12/28 05:00:49;;;;;;;;;;;13.20;99.90;;;;;;6343939;22;20330;-94
2021/12/28 05:03:14;;;;;;;;;;;13.20;99.90;;;;;;6338662;22;19969;-92
2021/12/28 05:05:43;;;;;;;;;;;13.30;99.90;;;;;;6346569;22;19903;-92
2021/12/28 05:08:13;;;;;;;;;;;13.30;99.90;;;;;;6378481;22;19947;-91
2021/12/28 05:10:39;;;;;;;;;;;13.30;99.90;;;;;;6341478;22;19902;-95
2021/12/28 05:13:05;;;;;;;;;;;13.40;99.90;;;;;;6340353;22;20004;-92
2021/12/28 05:15:30;;;;;;;;;;;13.40;99.90;;;;;;6344177;22;20120;-93
2021/12/28 05:17:56;;;;;;;;;;;13.40;99.90;;;;;;6346251;22;19903;-92
2021/12/28 05:20:22;;;;;;;;;;;13.40;99.90;;;;;;6344104;22;20284;-91
2021/12/28 05:22:47;;;;;;;;;;;13.30;99.90;;;;;;6372587;22;19909;-93
2021/12/28 05:25:14;;;;;;;;;;;13.30;99.90;;;;;;6347869;22;19902;-92
2021/12/28 05:27:48;;;;;;;;;;;13.30;99.90;;;;;;6351200;22;19902;-93
2021/12/28 05:30:19;;;;;;;;;;;13.30;99.90;;;;;;6352006;22;19902;-93
2021/12/28 05:32:44;;;;;;;;;;;13.30;99.90;;;;;;6353573;22;19917;-93
2021/12/28 05:35:10;;;;;;;;;;;13.30;99.90;;;;;;6352850;22;19902;-92
2021/12/28 05:37:36;;;;;;;;;;;13.30;99.90;;;;;;6356498;22;19903;-93
2021/12/28 05:40:10;;;;;;;;;;;13.40;99.90;;;;;;6352771;22;20088;-92
2021/12/28 05:42:38;;;;;;;;;;;13.30;99.90;;;;;;6352727;22;19902;-91
2021/12/28 05:45:04;;;;;;;;;;;13.30;99.90;;;;;;6349098;22;19902;-93
2021/12/28 05:47:32;;;;;;;;;;;13.30;99.90;;;;;;6350766;22;19902;-91
2021/12/28 05:49:57;;;;;;;;;;;13.30;99.90;;;;;;6349682;22;19959;-92
2021/12/28 05:52:23;;;;;;;;;;;13.30;99.90;;;;;;6351436;22;19910;-91
2021/12/28 05:54:55;;;;;;;;;;;13.30;99.90;;;;;;6349312;22;19910;-92
2021/12/28 05:57:24;;;;;;;;;;;13.30;99.90;;;;;;6349346;22;19938;-94
2021/12/28 05:59:57;;;;;;;;;;;13.30;99.90;;;;;;6380842;22;19979;-93
2021/12/28 06:02:40;;;;;;;;;;;13.30;99.90;;;;;;6352216;22;19902;-91
2021/12/28 06:05:09;;;;;;;;;;;13.30;99.90;;;;;;6354399;22;19910;-93
2021/12/28 06:07:57;;;;;;;;;;;13.30;99.90;;;;;;6352939;22;20349;-91
2021/12/28 06:10:28;;;;;;;;;;;13.30;99.90;;;;;;6333380;22;19906;-92
2021/12/28 06:12:53;;;;;;;;;;;13.30;99.90;;;;;;6356269;22;19910;-90
2021/12/28 06:15:19;;;;;;;;;;;13.20;99.90;;;;;;6352899;22;19903;-93
2021/12/28 06:17:45;;;;;;;;;;;13.20;99.90;;;;;;6353276;22;20353;-91
2021/12/28 06:20:36;;;;;;;;;;;13.20;99.90;;;;;;6357319;22;19909;-94
2021/12/28 06:23:17;;;;;;;;;;;;;;;;;;;;;
2021/12/28 06:26:13;;;;;;;;;;;;;;;;;;;;;
2021/12/28 06:29:02;;;;;;;;;;;13.20;99.90;;;;;;6381684;22;19941;-92
2021/12/28 06:37:24;;;;;;;;;;;13.10;99.90;;;;;;6223366;23;19908;-91
2021/12/28 06:40:11;;;;;;;;;;;13.10;99.90;;;;;;6313970;22;20341;-91
2021/12/28 06:43:18;;;;;;;;;;;13.10;99.90;;;;;;6254459;22;19927;-93
2021/12/28 06:45:45;;;;;;;;;;;13.00;99.90;;;;;;6241749;22;20363;-91
2021/12/28 06:48:11;;;;;;;;;;;13.00;99.90;;;;;;6274522;22;19994;-93
2021/12/28 06:50:36;;;;;;;;;;;13.00;99.90;;;;;;6248156;22;19943;-90
2021/12/28 06:53:02;;;;;;;;;;;13.00;99.90;;;;;;6247774;22;19953;-92
2021/12/28 06:55:48;;;;;;;;;;;13.00;99.90;;;;;;6247130;22;19949;-89
2021/12/28 06:58:17;;;;;;;;;;;13.00;99.90;;;;;;6248295;22;19985;-92
2021/12/28 07:01:05;;;;;;;;;;;12.90;99.90;;;;;;6248288;22;20290;-91
2021/12/28 07:03:45;;;;;;;;;;;12.90;99.90;;;;;;6247379;22;19904;-93
2021/12/28 07:06:30;;;;;;;;;;;12.90;99.90;;;;;;6248836;22;20004;-92
2021/12/28 07:09:37;;;;;;;;;;;12.90;99.90;;;;;;6249744;22;19978;-93
2021/12/28 07:12:19;;;;;;;;;;;12.90;99.90;;;;;;6272652;22;19911;-92
2021/12/28 07:15:12;;;;;;;;;;;;;;;;;;;;;
2021/12/28 07:17:40;;;;;;;;;;;12.90;99.90;;;;;;6373979;22;19948;-92
2021/12/28 07:20:09;;;;;;;;;;;12.90;99.20;;;;;;6343276;22;20345;-91
2021/12/28 07:22:56;;;;;;;;;;;12.90;99.20;;;;;;6369908;22;20326;-92
2021/12/28 07:25:21;;;;;;;;;;;12.90;98.70;;;;;;6370868;22;19902;-91
2021/12/28 07:28:12;;;;;;;;;;;12.80;99.00;;;;;;6343441;22;19909;-93
2021/12/28 07:30:40;;;;;;;;;;;12.80;98.50;;;;;;6340722;22;20154;-92
2021/12/28 07:33:20;;;;;;;;;;;12.80;98.80;;;;;;6341179;22;19967;-92
2021/12/28 07:35:46;;;;;;;;;;;12.80;98.60;;;;;;6341856;22;19902;-90
2021/12/28 07:38:12;;;;;;;;;;;12.80;98.90;;;;;;6341267;22;19977;-92
2021/12/28 07:40:40;;;;;;;;;;;12.80;97.70;;;;;;6340793;22;20055;-93
2021/12/28 07:43:05;;;;;;;;;;;12.80;97.50;;;;;;6340893;22;19934;-91
2021/12/28 07:45:31;;;;;;;;;;;12.70;98.00;;;;;;6342516;22;19902;-91
2021/12/28 07:48:02;;;;;;;;;;;12.70;97.50;;;;;;6341915;22;19909;-91
2021/12/28 07:50:39;;;;;;;;;;;12.70;98.00;;;;;;6341244;22;20275;-92
2021/12/28 07:53:04;;;;;;;;;;;12.60;97.90;;;;;;6341685;22;19993;-92
2021/12/28 07:55:30;;;;;;;;;;;12.70;98.30;;;;;;6341773;22;19917;-92
2021/12/28 07:57:56;;;;;;;;;;;12.70;97.20;;;;;;6342112;22;19945;-91
2021/12/28 08:00:24;;;;;;;;;;;12.70;96.80;;;;;;6341894;22;19902;-91
2021/12/28 08:02:49;;;;;;;;;;;12.60;97.20;;;;;;6342826;22;19902;-92
2021/12/28 08:05:33;;;;;;;;;;;12.60;97.10;;;;;;6342011;22;19914;-92
2021/12/28 08:07:59;;;;;;;;;;;12.60;97.10;;;;;;6341268;22;19973;-92
2021/12/28 08:10:25;;;;;;;;;;;12.60;97.70;;;;;;6342754;22;19903;-90
2021/12/28 08:12:52;;;;;;;;;;;12.50;97.30;;;;;;6348059;22;19942;-90
2021/12/28 08:15:29;;;;;;;;;;;12.50;98.00;;;;;;6379487;22;20326;-94
2021/12/28 08:17:54;;;;;;;;;;;12.50;98.10;;;;;;6345906;22;20238;-91
2021/12/28 08:20:23;;;;;;;;;;;12.50;98.40;;;;;;6344132;22;19981;-91
2021/12/28 08:22:58;;;;;;;;;;;12.40;98.10;;;;;;6342799;22;19903;-92
2021/12/28 08:25:27;;;;;;;;;;;12.40;97.90;;;;;;6343636;22;19933;-92
2021/12/28 08:27:58;;;;;;;;;;;12.50;98.60;;;;;;6344696;22;19903;-93
2021/12/28 08:30:26;;;;;;;;;;;12.50;98.90;;;;;;6344960;22;20333;-92
2021/12/28 08:32:52;;;;;;;;;;;12.50;99.10;;;;;;6343403;22;19942;-91
2021/12/28 08:35:17;;;;;;;;;;;12.50;99.20;;;;;;6347084;22;19971;-93
2021/12/28 08:37:43;;;;;;;;;;;12.50;99.40;;;;;;6348990;22;19902;-93
2021/12/28 08:40:12;;;;;;;;;;;12.50;99.60;;;;;;6346686;22;20280;-93
2021/12/28 08:42:42;;;;;;;;;;;12.50;99.70;;;;;;6345381;22;19955;-92
2021/12/28 08:45:10;;;;;;;;;;;12.50;99.90;;;;;;6349111;22;19909;-91
2021/12/28 08:47:36;;;;;;;;;;;12.50;99.90;;;;;;6345881;22;19929;-91
2021/12/28 08:50:22;;;;;;;;;;;12.50;99.90;;;;;;6345853;22;20323;-92
2021/12/28 08:52:50;;;;;;;;;;;12.50;99.20;;;;;;6320294;22;19910;-91
2021/12/28 08:55:19;;;;;;;;;;;12.60;99.70;;;;;;6343950;22;19918;-92
2021/12/28 08:57:52;;;;;;;;;;;12.60;99.90;;;;;;6344829;22;19906;-92
2021/12/28 09:00:23;;;;;;;;;;;12.60;99.90;;;;;;6343059;22;19902;-92
2021/12/28 09:02:49;;;;;;;;;;;12.50;99.40;;;;;;6370544;22;19903;-91
2021/12/28 09:05:15;;;;;;;;;;;12.60;99.90;;;;;;6342999;22;19908;-92
2021/12/28 09:07:40;;;;;;;;;;;12.60;99.90;;;;;;6342323;22;19984;-91
2021/12/28 09:10:11;;;;;;;;;;;12.70;99.90;;;;;;6342017;22;19914;-90
2021/12/28 09:12:39;;;;;;;;;;;12.60;99.90;;;;;;6342061;22;19910;-93
2021/12/28 09:15:06;;;;;;;;;;;12.60;99.90;;;;;;6343426;22;19903;-91
2021/12/28 09:17:55;;;;;;;;;;;12.70;99.80;;;;;;6341538;22;19903;-92
2021/12/28 09:20:26;;;;;;;;;;;12.70;99.70;;;;;;6319433;22;19968;-93
2021/12/28 09:22:53;;;;;;;;;;;12.70;99.10;;;;;;6343173;22;19902;-91
2021/12/28 09:25:22;;;;;;;;;;;12.70;99.30;;;;;;6343357;22;19902;-91
2021/12/28 09:27:48;;;;;;;;;;;12.80;99.30;;;;;;6341793;22;20315;-92
2021/12/28 09:30:14;;;;;;;;;;;12.80;99.50;;;;;;6341506;22;19953;-92
2021/12/28 09:32:42;;;;;;;;;;;12.70;99.50;;;;;;6343893;22;19910;-94
2021/12/28 09:35:09;;;;;;;;;;;12.70;99.70;;;;;;6344322;22;19902;-93
2021/12/28 09:37:34;;;;;;;;;;;12.80;99.00;;;;;;6343653;22;19902;-91
2021/12/28 09:40:22;;;;;;;;;;;12.70;98.90;;;;;;6342545;22;19902;-92
2021/12/28 09:42:47;;;;;;;;;;;12.80;99.30;;;;;;6369333;22;19902;-90
2021/12/28 09:45:13;;;;;;;;;;;12.80;99.40;;;;;;6342375;22;19909;-93
2021/12/28 09:47:59;;;;;;;;;;;12.80;98.90;;;;;;6344159;22;19903;-93
2021/12/28 09:50:25;;;;;;;;;;;12.80;99.00;;;;;;6343324;22;19955;-91
2021/12/28 09:52:51;;;;;;;;;;;12.90;98.60;;;;;;6318016;22;19914;-90
2021/12/28 09:55:18;;;;;;;;;;;12.90;99.10;;;;;;6371444;22;20176;-91
2021/12/28 09:57:45;;;;;;;;;;;12.80;98.60;;;;;;6350755;22;19903;-93
2021/12/28 10:00:22;;;;;;;;;;;;;;;;;;;;;
2021/12/28 10:03:05;;;;;;;;;;;12.90;98.60;;;;;;6388034;22;19918;-92
2021/12/28 10:08:37;;;;;;;;;;;12.90;98.90;;;;;;6318367;22;19934;-91
2021/12/28 10:11:10;;;;;;;;;;;12.90;98.90;;;;;;6367602;22;19906;-91
2021/12/28 10:13:44;;;;;;;;;;;12.90;98.70;;;;;;6356711;22;19914;-93
2021/12/28 10:19:58;;;;;;;;;;;12.80;99.10;;;;;;6352671;22;19973;-93
2021/12/28 10:22:53;;;;;;;;;;;12.90;99.40;;;;;;6321796;22;20318;-93
2021/12/28 10:26:10;;;;;;;;;;;;;;;;;;;;;
2021/12/28 10:28:42;;;;;;;;;;;12.90;98.80;;;;;;6363241;22;20318;-91
2021/12/28 10:34:25;;;;;;;;;;;12.90;98.40;;;;;;6352925;22;19918;-93
2021/12/28 10:37:41;;;;;;;;;;;;;;;;;;;;;
2021/12/28 10:39:59;;;;;;;;;;;12.90;98.40;;;;;;6368398;22;20390;-93
2021/12/28 10:42:41;;;;;;;;;;;12.90;98.60;;;;;;6349427;22;19902;-92
2021/12/28 10:45:27;;;;;;;;;;;13.00;97.80;;;;;;6340512;22;19906;-92
2021/12/28 10:48:05;;;;;;;;;;;;;;;;;;;;;
2021/12/28 10:50:55;;;;;;;;;;;13.00;98.30;;;;;;6369845;22;19974;-93
2021/12/28 10:56:22;;;;;;;;;;;13.10;97.40;;;;;;6347290;22;19932;-92
2021/12/28 10:58:49;;;;;;;;;;;13.10;97.80;;;;;;6343419;22;19902;-91
2021/12/28 11:01:21;;;;;;;;;;;13.10;96.40;;;;;;6349100;22;19910;-93
2021/12/28 11:03:51;;;;;;;;;;;13.10;97.30;;;;;;6348105;22;19902;-92
2021/12/28 11:06:27;;;;;;;;;;;13.10;96.60;;;;;;6343191;22;19933;-91
2021/12/28 11:08:56;;;;;;;;;;;13.10;97.20;;;;;;6342161;22;19903;-91
2021/12/28 11:11:22;;;;;;;;;;;13.10;97.30;;;;;;6370478;22;19970;-90
2021/12/28 11:13:49;;;;;;;;;;;13.20;97.10;;;;;;6348213;22;19958;-91
2021/12/28 11:16:15;;;;;;;;;;;13.20;96.90;;;;;;6346027;22;19909;-93
2021/12/28 11:18:43;;;;;;;;;;;13.20;97.20;;;;;;6342451;22;19902;-90
2021/12/28 11:21:12;;;;;;;;;;;13.20;97.40;;;;;;6342562;22;19902;-90
2021/12/28 11:23:40;;;;;;;;;;;13.20;97.50;;;;;;6344110;22;19906;-93
2021/12/28 11:26:11;;;;;;;;;;;13.30;96.50;;;;;;6342078;22;19910;-91
2021/12/28 11:28:40;;;;;;;;;;;13.30;96.50;;;;;;6343882;22;20226;-90
2021/12/28 11:31:14;;;;;;;;;;;13.30;96.70;;;;;;6342837;22;19937;-91
2021/12/28 11:34:00;;;;;;;;;;;13.40;96.70;;;;;;6343704;22;20284;-93
2021/12/28 11:36:28;;;;;;;;;;;13.40;96.20;;;;;;6369278;22;19913;-90
2021/12/28 11:38:55;;;;;;;;;;;13.40;95.90;;;;;;6343764;22;19902;-90
2021/12/28 11:41:21;;;;;;;;;;;13.40;95.70;;;;;;6343868;22;20379;-91
2021/12/28 11:43:49;;;;;;;;;;;13.40;95.40;;;;;;6339105;22;19929;-90
2021/12/28 11:46:20;;;;;;;;;;;13.50;96.10;;;;;;6341356;22;19917;-90
2021/12/28 11:48:46;;;;;;;;;;;13.40;96.10;;;;;;6341173;22;20391;-91
2021/12/28 11:51:12;;;;;;;;;;;13.50;95.00;;;;;;6341718;22;19902;-91
2021/12/28 11:53:49;;;;;;;;;;;13.40;94.40;;;;;;6369322;22;19944;-91
2021/12/28 11:56:32;;;;;;;;;;;13.40;95.30;;;;;;6341123;22;19955;-91
2021/12/28 11:59:33;;;;;;;;;;;13.30;94.90;;;;;;6341806;22;20224;-91
2021/12/28 12:02:15;;;;;;;;;;;13.30;94.50;;;;;;6341768;22;19902;-91
2021/12/28 12:04:46;;;;;;;;;;;13.40;94.50;;;;;;6340991;22;20342;-92
2021/12/28 12:07:17;;;;;;;;;;;13.50;95.00;;;;;;6341313;22;19908;-92
2021/12/28 12:09:52;;;;;;;;;;;13.60;94.80;;;;;;6341678;22;19902;-91
2021/12/28 12:12:44;;;;;;;;;;;13.70;94.10;;;;;;6341707;22;19991;-92
2021/12/28 12:15:20;;;;;;;;;;;;;;;;;;;;;
2021/12/28 12:18:06;;;;;;;;;;;13.60;92.90;;;;;;6369374;22;19985;-92
2021/12/28 12:20:34;;;;;;;;;;;13.60;93.50;;;;;;6324098;22;19902;-90
2021/12/28 12:26:17;;;;;;;;;;;13.60;92.40;;;;;;6213546;23;19904;-91
2021/12/28 12:28:50;;;;;;;;;;;13.60;93.00;;;;;;6214633;23;19954;-89
2021/12/28 12:31:32;;;;;;;;;;;13.60;92.80;;;;;;6300482;22;19989;-89
2021/12/28 12:33:58;;;;;;;;;;;13.60;91.70;;;;;;6361488;22;19898;-92
2021/12/28 12:36:51;;;;;;;;;;;13.60;92.00;;;;;;6369954;22;20065;-91
2021/12/28 12:39:41;;;;;;;;;;;13.90;92.40;;;;;;6323783;22;19906;-91
2021/12/28 12:42:20;;;;;;;;;;;;;;;;;;;;;
2021/12/28 12:44:48;;;;;;;;;;;13.70;90.90;;;;;;6370290;22;19977;-93
2021/12/28 12:47:18;;;;;;;;;;;13.70;91.70;;;;;;6341517;22;20330;-94
2021/12/28 12:53:20;;;;;;;;;;;;;;;;;;;;;
2021/12/28 12:56:10;;;;;;;;;;;13.60;91.20;;;;;;6093967;23;20441;-93
2021/12/28 12:58:54;;;;;;;;;;;13.60;91.70;;;;;;6279774;22;19930;-90
2021/12/28 13:01:42;;;;;;;;;;;13.70;92.20;;;;;;6244904;23;19953;-93
2021/12/28 13:04:38;;;;;;;;;;;13.60;91.50;;;;;;6219241;23;19958;-93
2021/12/28 13:07:16;;;;;;;;;;;13.60;91.50;;;;;;6157111;23;19983;-94
2021/12/28 13:09:45;;;;;;;;;;;13.60;92.10;;;;;;6243965;23;20040;-93
2021/12/28 13:12:15;;;;;;;;;;;13.60;91.40;;;;;;6217293;23;19975;-92
2021/12/28 13:14:40;;;;;;;;;;;13.60;91.70;;;;;;6217517;23;19907;-93
2021/12/28 13:17:35;;;;;;;;;;;13.60;91.60;;;;;;6217962;23;19907;-91
2021/12/28 13:20:06;;;;;;;;;;;13.60;91.40;;;;;;6195839;23;19908;-93
2021/12/28 13:23:02;;;;;;;;;;;13.60;91.40;;;;;;6217364;23;20248;-91
2021/12/28 13:26:05;;;;;;;;;;;13.60;91.50;;;;;;6208731;22;20464;-90
2021/12/28 13:28:31;;;;;;;;;;;13.50;91.70;;;;;;6193769;22;19927;-91
2021/12/28 13:30:58;;;;;;;;;;;13.60;90.80;;;;;;6336017;22;20250;-92
2021/12/28 13:33:29;;;;;;;;;;;13.60;91.50;;;;;;6340410;22;19910;-92
2021/12/28 13:35:57;;;;;;;;;;;13.70;90.80;;;;;;6340697;22;19906;-91
2021/12/28 13:38:24;;;;;;;;;;;13.70;91.40;;;;;;6340450;22;19930;-91
2021/12/28 13:40:56;;;;;;;;;;;13.70;91.40;;;;;;6341697;22;19902;-92
2021/12/28 13:43:48;;;;;;;;;;;13.80;91.90;;;;;;6349253;22;19922;-91
2021/12/28 13:46:16;;;;;;;;;;;13.80;90.50;;;;;;6336244;22;19909;-92
2021/12/28 13:48:43;;;;;;;;;;;13.80;90.10;;;;;;6385925;22;19902;-92
2021/12/28 13:51:22;;;;;;;;;;;13.80;90.10;;;;;;6379863;22;19902;-92
2021/12/28 13:53:56;;;;;;;;;;;13.90;88.90;;;;;;6358636;22;19914;-89
2021/12/28 13:56:34;;;;;;;;;;;13.90;89.20;;;;;;6384568;22;19902;-91
2021/12/28 13:59:26;;;;;;;;;;;13.90;85.40;;;;;;6381354;22;20335;-91
2021/12/28 14:02:02;;;;;;;;;;;13.90;87.30;;;;;;6326628;22;19929;-91
2021/12/28 14:04:35;;;;;;;;;;;13.80;85.60;;;;;;6339448;22;20436;-91
2021/12/28 14:07:31;;;;;;;;;;;;;;;;;;;;;
2021/12/28 14:10:28;;;;;;;;;;;13.70;85.30;;;;;;6352499;22;19997;-91
2021/12/28 14:19:17;;;;;;;;;;;13.70;88.00;;;;;;6067590;23;20367;-92
2021/12/28 14:44:03;;;;;;;;;;;;;;;;;;;;;
2021/12/28 14:56:22;;;;;;;;;;;13.90;90.40;;;;;;5989694;24;19958;-94
2021/12/28 14:58:44;;;;;;;;;;;13.90;90.60;;;;;;5983853;23;19910;-93
2021/12/28 15:01:09;;;;;;;;;;;13.90;90.80;;;;;;6006326;23;19913;-94
2021/12/28 15:03:38;;;;;;;;;;;13.80;90.80;;;;;;6064541;23;19893;-93
2021/12/28 15:06:05;;;;;;;;;;;13.80;90.90;;;;;;6269994;22;19918;-90
2021/12/28 15:08:33;;;;;;;;;;;13.70;91.10;;;;;;6245899;23;19898;-92
2021/12/28 15:10:58;;;;;;;;;;;13.60;91.10;;;;;;6307493;22;19906;-89
2021/12/28 15:13:43;;;;;;;;;;;13.60;91.10;;;;;;6364077;22;19898;-94
2021/12/28 15:16:09;;;;;;;;;;;13.50;91.20;;;;;;6344316;22;19902;-94
2021/12/28 15:18:45;;;;;;;;;;;13.50;91.10;;;;;;6343294;22;19928;-93
2021/12/28 15:21:14;;;;;;;;;;;13.40;91.20;;;;;;6356131;22;19902;-91
2021/12/28 15:23:50;;;;;;;;;;;13.30;90.90;;;;;;6365395;22;20326;-94
2021/12/28 15:26:24;;;;;;;;;;;13.40;91.10;;;;;;6389611;22;19924;-93
2021/12/28 15:28:49;;;;;;;;;;;13.30;91.40;;;;;;6355660;22;19900;-93
2021/12/28 15:31:15;;;;;;;;;;;13.20;91.60;;;;;;6367021;22;19887;-94
2021/12/28 15:33:49;;;;;;;;;;;13.20;91.50;;;;;;6347542;22;19975;-92
2021/12/28 15:36:15;;;;;;;;;;;13.10;91.60;;;;;;6348139;22;19902;-92
2021/12/28 15:38:45;;;;;;;;;;;13.10;91.90;;;;;;6348449;22;19902;-92
2021/12/28 15:41:11;;;;;;;;;;;13.10;91.70;;;;;;6345568;22;19922;-90
2021/12/28 15:43:59;;;;;;;;;;;13.10;91.80;;;;;;6381096;22;19913;-91
2021/12/28 15:46:37;;;;;;;;;;;13.10;91.90;;;;;;6295567;22;19913;-91
2021/12/28 15:49:07;;;;;;;;;;;13.00;91.80;;;;;;6284974;22;19907;-91
2021/12/28 15:51:35;;;;;;;;;;;13.00;91.90;;;;;;6263416;22;20163;-92
2021/12/28 15:54:09;;;;;;;;;;;13.00;92.00;;;;;;6257234;22;19938;-92
2021/12/28 15:56:48;;;;;;;;;;;12.90;92.20;;;;;;6257278;22;19903;-93
2021/12/28 15:59:17;;;;;;;;;;;12.90;92.10;;;;;;6289798;22;19907;-91
2021/12/28 16:01:45;;;;;;;;;;;13.00;92.20;;;;;;6291633;22;19903;-91
2021/12/28 16:04:20;;;;;;;;;;;12.90;92.10;;;;;;6262612;22;19903;-91
2021/12/28 16:06:45;;;;;;;;;;;13.00;91.80;;;;;;6260853;22;20298;-91
2021/12/28 16:09:29;;;;;;;;;;;13.00;91.90;;;;;;6287281;22;19915;-91
2021/12/28 16:11:57;;;;;;;;;;;13.10;91.80;;;;;;6260754;22;19918;-92
2021/12/28 16:14:27;;;;;;;;;;;13.00;91.80;;;;;;6284697;22;20040;-92
2021/12/28 16:17:13;;;;;;;;;;;13.10;91.90;;;;;;6261474;22;19904;-95
2021/12/28 16:19:40;;;;;;;;;;;13.00;91.80;;;;;;6226278;22;20287;-92
2021/12/28 16:22:12;;;;;;;;;;;13.10;92.10;;;;;;6256358;22;19931;-92
2021/12/28 16:24:44;;;;;;;;;;;13.00;92.40;;;;;;6261007;22;19911;-92
2021/12/28 16:27:10;;;;;;;;;;;13.10;92.80;;;;;;6231916;22;19907;-95
2021/12/28 16:29:59;;;;;;;;;;;13.00;93.00;;;;;;6250107;22;19926;-91
2021/12/28 16:32:33;;;;;;;;;;;13.10;93.40;;;;;;6236520;22;19946;-93
2021/12/28 16:35:01;;;;;;;;;;;13.10;93.30;;;;;;6246071;22;19923;-94
2021/12/28 16:37:28;;;;;;;;;;;13.00;93.70;;;;;;6325374;22;19980;-93
2021/12/28 16:39:53;;;;;;;;;;;12.90;94.00;;;;;;6369344;22;20330;-93
2021/12/28 16:42:19;;;;;;;;;;;12.90;93.80;;;;;;6342601;22;19910;-93
2021/12/28 16:44:45;;;;;;;;;;;12.80;94.40;;;;;;6339923;22;19906;-95
2021/12/28 16:47:28;;;;;;;;;;;12.80;94.70;;;;;;6350521;22;19902;-94
2021/12/28 16:50:16;;;;;;;;;;;12.70;94.70;;;;;;6352477;22;19886;-93
2021/12/28 16:53:22;;;;;;;;;;;12.70;95.30;;;;;;6266318;22;20286;-93
2021/12/28 16:55:48;;;;;;;;;;;12.70;95.40;;;;;;6290307;22;19934;-93
2021/12/28 17:01:38;;;;;;;;;;;12.50;95.80;;;;;;6199908;23;19948;-92
2021/12/28 17:07:09;;;;;;;;;;;12.60;95.50;;;;;;6254557;22;19972;-90
2021/12/28 17:09:35;;;;;;;;;;;12.50;95.30;;;;;;6288328;22;19903;-91
2021/12/28 17:12:01;;;;;;;;;;;12.50;95.40;;;;;;6261470;22;19903;-90
2021/12/28 17:14:30;;;;;;;;;;;12.50;95.30;;;;;;6261589;22;19927;-92
2021/12/28 17:16:55;;;;;;;;;;;12.50;95.80;;;;;;6260991;22;19904;-90
2021/12/28 17:19:21;;;;;;;;;;;12.50;95.20;;;;;;6260515;22;19904;-89
2021/12/28 17:21:46;;;;;;;;;;;12.50;95.30;;;;;;6258569;22;19926;-92
2021/12/28 17:24:12;;;;;;;;;;;12.50;95.10;;;;;;6328530;22;19909;-92
2021/12/28 17:26:38;;;;;;;;;;;12.40;95.60;;;;;;6352309;22;20268;-91
2021/12/28 17:29:11;;;;;;;;;;;12.40;95.40;;;;;;6345272;22;20016;-93
2021/12/28 17:31:43;;;;;;;;;;;12.30;96.00;;;;;;6349534;22;19902;-91
2021/12/28 17:34:10;;;;;;;;;;;12.30;96.00;;;;;;6347100;22;19917;-90
2021/12/28 17:36:37;;;;;;;;;;;12.30;96.00;;;;;;6375603;22;19910;-93